Time,TemperatureF,DewpointF,PressureIn,WindDirection,WindDirectionDegrees,WindSpeedMPH,WindSpeedGustMPH,Humidity,HourlyPrecipIn,Conditions,Clouds,dailyrainin,SoftwareType,DateUTC
2013-02-26 00:10:00,74.0,72.0,29.85,SSE,165,0.0,3.0,93,0.00,,,0.00,weatherlink.com 1.10,2013-02-26 05:10:00,
2013-02-26 00:25:00,74.0,72.0,29.84,ESE,115,3.0,4.0,93,0.00,,,0.00,weatherlink.com 1.10,2013-02-26 05:25:00,
2013-02-26 00:40:00,74.3,72.0,29.84,NE,50,0.0,4.0,92,0.00,,,0.00,weatherlink.com 1.10,2013-02-26 05:40:00,
2013-02-26 00:55:00,74.2,72.0,29.84,ENE,75,0.0,3.0,92,0.00,,,0.00,weatherlink.com 1.10,2013-02-26 05:55:00,
2013-02-26 01:11:00,74.3,72.0,29.84,NE,36,0.0,5.0,93,0.00,,,0.00,weatherlink.com 1.10,2013-02-26 06:11:00,
2013-02-26 01:26:00,74.3,72.0,29.83,South,177,1.0,5.0,92,0.00,,,0.00,weatherlink.com 1.10,2013-02-26 06:26:00,
2013-02-26 01:41:00,74.4,72.0,29.82,NE,53,1.0,4.0,92,0.00,,,0.00,weatherlink.com 1.10,2013-02-26 06:41:00,
2013-02-26 01:56:00,74.4,72.0,29.82,NE,51,2.0,5.0,92,0.00,,,0.00,weatherlink.com 1.10,2013-02-26 06:56:00,
2013-02-26 02:11:00,74.3,72.0,29.81,SE,124,0.0,6.0,91,0.00,,,0.00,weatherlink.com 1.10,2013-02-26 07:11:00,
2013-02-26 02:26:00,74.5,72.0,29.81,NE,36,2.0,7.0,92,0.00,,,0.00,weatherlink.com 1.10,2013-02-26 07:26:00,
2013-02-26 02:41:00,74.6,72.0,29.81,NE,56,4.0,5.0,91,0.00,,,0.00,weatherlink.com 1.10,2013-02-26 07:41:00,
2013-02-26 02:56:00,74.7,72.0,29.81,SE,128,5.0,6.0,92,0.00,,,0.00,weatherlink.com 1.10,2013-02-26 07:56:00,
2013-02-26 03:11:00,74.9,73.0,29.81,NE,45,1.0,5.0,92,0.00,,,0.00,weatherlink.com 1.10,2013-02-26 08:11:00,
2013-02-26 03:26:00,74.9,73.0,29.81,NNE,30,2.0,5.0,92,0.00,,,0.00,weatherlink.com 1.10,2013-02-26 08:26:00,
2013-02-26 03:41:00,74.7,72.0,29.81,North,1,0.0,5.0,92,0.00,,,0.00,weatherlink.com 1.10,2013-02-26 08:41:00,
2013-02-26 03:56:00,75.1,72.0,29.81,ENE,57,1.0,5.0,91,0.00,,,0.00,weatherlink.com 1.10,2013-02-26 08:56:00,
2013-02-26 04:11:00,75.5,73.0,29.81,ENE,58,1.0,4.0,91,0.00,,,0.00,weatherlink.com 1.10,2013-02-26 09:11:00,
2013-02-26 04:26:00,75.4,72.0,29.81,ENE,65,1.0,5.0,90,0.00,,,0.00,weatherlink.com 1.10,2013-02-26 09:26:00,
2013-02-26 04:41:00,75.4,72.0,29.82,North,6,1.0,4.0,89,0.00,,,0.00,weatherlink.com 1.10,2013-02-26 09:41:00,
2013-02-26 04:56:00,75.3,72.0,29.82,NE,45,0.0,5.0,89,0.00,,,0.00,weatherlink.com 1.10,2013-02-26 09:56:00,
2013-02-26 05:11:00,75.1,72.0,29.81,East,79,3.0,9.0,89,0.00,,,0.00,weatherlink.com 1.10,2013-02-26 10:11:00,
2013-02-26 05:26:00,74.8,71.0,29.81,NNE,33,1.0,5.0,89,0.00,,,0.00,weatherlink.com 1.10,2013-02-26 10:26:00,
2013-02-26 05:41:00,74.6,71.0,29.82,NNE,16,0.0,5.0,89,0.00,,,0.00,weatherlink.com 1.10,2013-02-26 10:41:00,
2013-02-26 05:56:00,74.5,71.0,29.82,NE,47,2.0,2.0,89,0.00,,,0.00,weatherlink.com 1.10,2013-02-26 10:56:00,
2013-02-26 06:11:00,74.6,71.0,29.83,NE,36,1.0,2.0,89,0.00,,,0.00,weatherlink.com 1.10,2013-02-26 11:11:00,
2013-02-26 06:26:00,74.4,71.0,29.83,ENE,57,0.0,6.0,90,0.00,,,0.00,weatherlink.com 1.10,2013-02-26 11:26:00,
2013-02-26 06:41:00,74.3,71.0,29.84,NE,44,0.0,3.0,90,0.00,,,0.00,weatherlink.com 1.10,2013-02-26 11:41:00,
2013-02-26 06:56:00,74.2,71.0,29.85,WNW,300,0.0,3.0,90,0.00,,,0.00,weatherlink.com 1.10,2013-02-26 11:56:00,
2013-02-26 07:11:00,74.0,71.0,29.85,NNW,340,0.0,3.0,91,0.00,,,0.00,weatherlink.com 1.10,2013-02-26 12:11:00,
2013-02-26 07:26:00,74.5,72.0,29.86,SE,146,0.0,1.0,90,0.00,,,0.00,weatherlink.com 1.10,2013-02-26 12:26:00,
2013-02-26 07:41:00,75.8,72.0,29.86,SSE,150,0.0,4.0,88,0.00,,,0.00,weatherlink.com 1.10,2013-02-26 12:41:00,
2013-02-26 07:56:00,75.9,72.0,29.87,ENE,69,2.0,6.0,87,0.00,,,0.00,weatherlink.com 1.10,2013-02-26 12:56:00,
2013-02-26 08:11:00,76.0,72.0,29.86,NE,39,1.0,5.0,86,0.00,,,0.00,weatherlink.com 1.10,2013-02-26 13:11:00,
2013-02-26 08:26:00,76.9,73.0,29.87,SSE,150,1.0,4.0,86,0.00,,,0.00,weatherlink.com 1.10,2013-02-26 13:26:00,
2013-02-26 08:41:00,77.2,72.0,29.87,SE,144,0.0,7.0,85,0.00,,,0.00,weatherlink.com 1.10,2013-02-26 13:41:00,
2013-02-26 08:56:00,78.3,73.0,29.88,ESE,113,1.0,3.0,84,0.00,,,0.00,weatherlink.com 1.10,2013-02-26 13:56:00,
2013-02-26 09:12:00,80.3,74.0,29.88,NNE,27,0.0,4.0,82,0.00,,,0.00,weatherlink.com 1.10,2013-02-26 14:12:00,
2013-02-26 09:27:00,81.6,74.0,29.89,SSE,149,0.0,4.0,78,0.00,,,0.00,weatherlink.com 1.10,2013-02-26 14:27:00,
2013-02-26 09:42:00,81.0,73.0,29.89,South,190,2.0,3.0,77,0.00,,,0.00,weatherlink.com 1.10,2013-02-26 14:42:00,
2013-02-26 09:57:00,82.5,73.0,29.88,SSE,159,0.0,4.0,73,0.00,,,0.00,weatherlink.com 1.10,2013-02-26 14:57:00,
2013-02-26 10:12:00,84.1,73.0,29.88,East,92,0.0,5.0,69,0.00,,,0.00,weatherlink.com 1.10,2013-02-26 15:12:00,
2013-02-26 10:27:00,85.0,73.0,29.87,NE,39,1.0,6.0,67,0.00,,,0.00,weatherlink.com 1.10,2013-02-26 15:27:00,
2013-02-26 10:42:00,84.3,74.0,29.86,NE,51,3.0,6.0,71,0.00,,,0.00,weatherlink.com 1.10,2013-02-26 15:42:00,
2013-02-26 10:57:00,82.7,74.0,29.87,NE,38,5.0,7.0,75,0.00,,,0.00,weatherlink.com 1.10,2013-02-26 15:57:00,
2013-02-26 11:12:00,81.2,73.0,29.88,NE,34,3.0,8.0,77,0.00,,,0.00,weatherlink.com 1.10,2013-02-26 16:12:00,
2013-02-26 11:27:00,81.2,73.0,29.88,NNE,29,1.0,8.0,77,0.00,,,0.00,weatherlink.com 1.10,2013-02-26 16:27:00,
2013-02-26 11:42:00,81.4,74.0,29.88,East,82,0.0,4.0,78,0.00,,,0.00,weatherlink.com 1.10,2013-02-26 16:42:00,
2013-02-26 11:57:00,82.1,74.0,29.88,North,4,1.0,4.0,77,0.00,,,0.00,weatherlink.com 1.10,2013-02-26 16:57:00,
2013-02-26 12:12:00,83.5,71.0,29.87,NE,44,2.0,7.0,65,0.00,,,0.00,weatherlink.com 1.10,2013-02-26 17:12:00,
2013-02-26 12:27:00,85.2,70.0,29.86,SW,228,1.0,7.0,61,0.00,,,0.00,weatherlink.com 1.10,2013-02-26 17:27:00,
2013-02-26 12:42:00,86.8,73.0,29.86,NE,50,0.0,7.0,64,0.00,,,0.00,weatherlink.com 1.10,2013-02-26 17:42:00,
2013-02-26 12:57:00,86.5,71.0,29.86,NNW,330,2.0,8.0,61,0.00,,,0.00,weatherlink.com 1.10,2013-02-26 17:57:00,
2013-02-26 13:12:00,83.6,72.0,29.85,ESE,116,3.0,7.0,67,0.00,,,0.00,weatherlink.com 1.10,2013-02-26 18:12:00,
2013-02-26 13:27:00,85.4,70.0,29.84,ENE,61,3.0,10.0,60,0.00,,,0.00,weatherlink.com 1.10,2013-02-26 18:27:00,
2013-02-26 13:42:00,85.6,70.0,29.82,SSE,152,3.0,7.0,60,0.00,,,0.00,weatherlink.com 1.10,2013-02-26 18:42:00,
2013-02-26 13:57:00,86.1,70.0,29.81,NW,321,1.0,7.0,59,0.00,,,0.00,weatherlink.com 1.10,2013-02-26 18:57:00,
2013-02-26 14:12:00,87.5,69.0,29.81,NNE,22,1.0,9.0,54,0.00,,,0.00,weatherlink.com 1.10,2013-02-26 19:12:00,
2013-02-26 14:27:00,86.0,74.0,29.81,NNE,31,3.0,7.0,68,0.00,,,0.00,weatherlink.com 1.10,2013-02-26 19:27:00,
2013-02-26 14:42:00,82.6,74.0,29.80,NE,46,4.0,8.0,75,0.00,,,0.00,weatherlink.com 1.10,2013-02-26 19:42:00,
2013-02-26 14:57:00,83.3,72.0,29.80,SSE,157,2.0,4.0,68,0.00,,,0.00,weatherlink.com 1.10,2013-02-26 19:57:00,
2013-02-26 15:12:00,85.0,70.0,29.80,NNW,340,1.0,6.0,62,0.00,,,0.00,weatherlink.com 1.10,2013-02-26 20:12:00,
2013-02-26 15:27:00,84.1,71.0,29.80,ESE,103,1.0,6.0,64,0.00,,,0.00,weatherlink.com 1.10,2013-02-26 20:27:00,
2013-02-26 15:42:00,81.6,74.0,29.80,SSE,165,1.0,5.0,77,0.00,,,0.00,weatherlink.com 1.10,2013-02-26 20:42:00,
2013-02-26 15:57:00,80.9,73.0,29.80,East,96,1.0,5.0,78,0.00,,,0.00,weatherlink.com 1.10,2013-02-26 20:57:00,
2013-02-26 16:12:00,80.5,73.0,29.81,East,91,1.0,4.0,78,0.00,,,0.00,weatherlink.com 1.10,2013-02-26 21:12:00,
2013-02-26 16:27:00,79.5,72.0,29.82,WSW,252,0.0,5.0,78,0.00,,,0.00,weatherlink.com 1.10,2013-02-26 21:27:00,
2013-02-26 16:42:00,80.1,72.0,29.82,South,173,2.0,5.0,75,0.00,,,0.00,weatherlink.com 1.10,2013-02-26 21:42:00,
2013-02-26 16:57:00,80.9,72.0,29.82,SSE,160,1.0,4.0,74,0.00,,,0.00,weatherlink.com 1.10,2013-02-26 21:57:00,
2013-02-26 17:12:00,80.6,72.0,29.81,ESE,108,2.0,6.0,74,0.01,,,0.01,weatherlink.com 1.10,2013-02-26 22:12:00,
2013-02-26 17:27:00,80.3,72.0,29.82,SSW,208,1.0,5.0,75,0.01,,,0.01,weatherlink.com 1.10,2013-02-26 22:27:00,
2013-02-26 17:42:00,80.3,72.0,29.82,NE,56,1.0,8.0,75,0.01,,,0.01,weatherlink.com 1.10,2013-02-26 22:42:00,
2013-02-26 17:57:00,80.3,72.0,29.83,SE,144,1.0,5.0,75,0.01,,,0.01,weatherlink.com 1.10,2013-02-26 22:57:00,
2013-02-26 18:12:00,80.0,71.0,29.83,SSW,208,0.0,4.0,75,0.00,,,0.01,weatherlink.com 1.10,2013-02-26 23:12:00,
2013-02-26 18:27:00,79.8,70.0,29.84,SSW,198,1.0,3.0,72,0.00,,,0.01,weatherlink.com 1.10,2013-02-26 23:27:00,
2013-02-26 18:42:00,79.6,70.0,29.84,South,177,2.0,4.0,72,0.00,,,0.01,weatherlink.com 1.10,2013-02-26 23:42:00,
2013-02-26 18:57:00,79.4,70.0,29.85,ESE,108,1.0,4.0,73,0.00,,,0.01,weatherlink.com 1.10,2013-02-26 23:57:00,
2013-02-26 19:12:00,79.3,70.0,29.85,SSE,148,2.0,5.0,73,0.00,,,0.01,weatherlink.com 1.10,2013-02-27 00:12:00,
2013-02-26 19:27:00,78.9,70.0,29.85,SW,226,0.0,5.0,75,0.00,,,0.01,weatherlink.com 1.10,2013-02-27 00:27:00,
2013-02-26 19:42:00,78.4,70.0,29.86,SE,132,0.0,4.0,76,0.00,,,0.01,weatherlink.com 1.10,2013-02-27 00:42:00,
2013-02-26 19:57:00,78.0,70.0,29.86,ESE,114,0.0,2.0,77,0.00,,,0.01,weatherlink.com 1.10,2013-02-27 00:57:00,
2013-02-26 20:12:00,77.7,70.0,29.87,South,188,0.0,4.0,78,0.00,,,0.01,weatherlink.com 1.10,2013-02-27 01:12:00,
2013-02-26 20:27:00,77.8,70.0,29.87,SW,229,0.0,3.0,78,0.00,,,0.01,weatherlink.com 1.10,2013-02-27 01:27:00,
2013-02-26 20:42:00,77.6,71.0,29.88,SSW,198,0.0,3.0,79,0.00,,,0.01,weatherlink.com 1.10,2013-02-27 01:42:00,
2013-02-26 20:57:00,77.5,71.0,29.87,SSE,159,0.0,3.0,80,0.00,,,0.01,weatherlink.com 1.10,2013-02-27 01:57:00,
2013-02-26 21:12:00,77.4,71.0,29.88,SE,141,0.0,3.0,80,0.00,,,0.01,weatherlink.com 1.10,2013-02-27 02:12:00,
2013-02-26 21:27:00,77.4,71.0,29.88,ESE,104,3.0,3.0,80,0.00,,,0.01,weatherlink.com 1.10,2013-02-27 02:27:00,
2013-02-26 21:42:00,77.2,71.0,29.88,South,169,0.0,4.0,81,0.00,,,0.01,weatherlink.com 1.10,2013-02-27 02:42:00,
2013-02-26 21:57:00,76.7,71.0,29.88,East,88,1.0,4.0,82,0.00,,,0.01,weatherlink.com 1.10,2013-02-27 02:57:00,
2013-02-26 22:12:00,76.4,71.0,29.89,West,281,2.0,4.0,83,0.00,,,0.01,weatherlink.com 1.10,2013-02-27 03:12:00,
2013-02-26 22:28:00,76.1,71.0,29.89,ENE,77,0.0,4.0,84,0.00,,,0.01,weatherlink.com 1.10,2013-02-27 03:28:00,
2013-02-26 22:43:00,75.8,71.0,29.88,North,350,0.0,2.0,85,0.00,,,0.01,weatherlink.com 1.10,2013-02-27 03:43:00,
2013-02-26 22:58:00,75.5,71.0,29.88,WSW,257,0.0,2.0,86,0.00,,,0.01,weatherlink.com 1.10,2013-02-27 03:58:00,
2013-02-26 23:13:00,75.4,71.0,29.89,SSE,149,1.0,3.0,87,0.00,,,0.01,weatherlink.com 1.10,2013-02-27 04:13:00,
2013-02-26 23:28:00,75.5,71.0,29.89,SSE,148,3.0,3.0,87,0.00,,,0.01,weatherlink.com 1.10,2013-02-27 04:28:00,
2013-02-26 23:43:00,75.7,72.0,29.89,SSE,148,1.0,2.0,88,0.00,,,0.01,weatherlink.com 1.10,2013-02-27 04:43:00,
2013-02-26 23:58:00,75.7,72.0,29.88,SE,134,0.0,2.0,88,0.00,,,0.01,weatherlink.com 1.10,2013-02-27 04:58:00,